To NAV CANADA Home Page Login to a new session Search on AWWS site Feedback and Comments Disclaimer Vers la page française équivalente Tips FAQ What's new on the site To the Forecasts and Observations / NOTAM section To "File a Flight Plan" website Publications and other links Update of the User's profile FIC Telephone Numbers My Weather Data Folder Route Weather Data Regional Weather Data Local Weather Data To the Forecasts and Observations / NOTAM section
Request Generated 12/10/2016 at 16:32:41 UTC . Weather information available at that time is displayed.

METAR/TAF

HALIFAX/STANFIELD INTL/NS    (show WxCam)

METAR CYHZ 101600Z 32016KT 8SM -SN OVC019 M09/M12 A2997 RMK SC8
SLP160=
METAR CYHZ 101500Z 30014G20KT 10SM -SN OVC023 M09/M13 A2999 RMK SC8
SLP165=
METAR CYHZ 101400Z 32012G20KT 8SM -SN OVC017 M09/M12 A2998 RMK NS8
SLP162=

TAF CYHZ 101438Z 1015/1112 32012G22KT 5SM -SHSN OVC020 TEMPO
1015/1024 P6SM NSW OVC025
FM110000 32010G20KT 5SM -SHSN BKN020
FM110600 32015G25KT P6SM -SHSN BKN020
RMK NXT FCST BY 101800Z=
Your time UTC time
Weather data provided by Environment Canada and NAV CANADA